Time;durP1;ratioP1;P1;durP2;ratioP2;P2;SDS_P1;SDS_P2;PMS_P1;PMS_P2;Temp;Humidity;BMP_temperature;BMP_pressure;BME280_temperature;BME280_humidity;BME280_pressure;Samples;Min_cycle;Max_cycle;Signal;HPM_P1;HPM_P2
2023/07/05 00:01:25;;;;;;;8.30;6.80;;;;;;;;;;5057019;28;20024;-80
2023/07/05 00:03:50;;;;;;;11.35;6.82;;;;;;;;;;5068736;28;20449;-80
2023/07/05 00:06:15;;;;;;;7.70;7.00;;;;;;;;;;5059229;28;20052;-79
2023/07/05 00:08:41;;;;;;;7.82;6.78;;;;;;;;;;5056957;28;20875;-83
2023/07/05 00:11:08;;;;;;;7.43;6.20;;;;;;;;;;5055766;28;20032;-76
2023/07/05 00:13:34;;;;;;;9.27;6.85;;;;;;;;;;5052454;28;20464;-78
2023/07/05 00:16:00;;;;;;;7.28;6.53;;;;;;;;;;5051111;28;20020;-76
2023/07/05 00:18:25;;;;;;;6.75;6.10;;;;;;;;;;5054449;28;20047;-78
2023/07/05 00:20:51;;;;;;;6.63;6.03;;;;;;;;;;5062116;28;20028;-81
2023/07/05 00:23:16;;;;;;;10.05;6.57;;;;;;;;;;5061458;28;20047;-78
2023/07/05 00:25:41;;;;;;;7.60;6.82;;;;;;;;;;5061475;28;20028;-78
2023/07/05 00:28:07;;;;;;;7.18;6.47;;;;;;;;;;5050472;28;20119;-76
2023/07/05 00:30:32;;;;;;;7.25;6.55;;;;;;;;;;5051992;28;20114;-76
2023/07/05 00:32:57;;;;;;;9.52;6.80;;;;;;;;;;5059044;28;20122;-79
2023/07/05 00:35:23;;;;;;;7.05;6.35;;;;;;;;;;5067402;28;20023;-75
2023/07/05 00:37:48;;;;;;;6.85;6.15;;;;;;;;;;5059463;28;20020;-77
2023/07/05 00:40:13;;;;;;;7.00;6.30;;;;;;;;;;5059412;28;20339;-77
2023/07/05 00:42:39;;;;;;;7.20;6.45;;;;;;;;;;5055542;28;20040;-79
2023/07/05 00:45:11;;;;;;;7.25;6.55;;;;;;;;;;5049549;28;20036;-78
2023/07/05 00:47:37;;;;;;;11.68;6.53;;;;;;;;;;5064054;28;20078;-78
2023/07/05 00:50:11;;;;;;;10.23;6.75;;;;;;;;;;5056704;28;20047;-76
2023/07/05 00:52:37;;;;;;;10.48;7.00;;;;;;;;;;5057912;28;20103;-83
2023/07/05 00:55:02;;;;;;;11.82;8.05;;;;;;;;;;5055974;28;20116;-78
2023/07/05 00:57:29;;;;;;;14.93;7.57;;;;;;;;;;5062034;28;20059;-79
2023/07/05 00:59:57;;;;;;;17.98;7.70;;;;;;;;;;5051205;28;20024;-76
2023/07/05 01:02:23;;;;;;;13.25;8.57;;;;;;;;;;5062479;28;20094;-78
2023/07/05 01:04:48;;;;;;;13.88;8.88;;;;;;;;;;5060747;28;20518;-78
2023/07/05 01:07:14;;;;;;;12.77;9.18;;;;;;;;;;5057820;28;20049;-78
2023/07/05 01:09:39;;;;;;;10.50;9.40;;;;;;;;;;5053374;28;20055;-77
2023/07/05 01:12:20;;;;;;;11.95;9.68;;;;;;;;;;5064390;28;20024;-75
2023/07/05 01:14:50;;;;;;;18.73;7.20;;;;;;;;;;5055315;28;20082;-77
2023/07/05 01:17:15;;;;;;;9.88;8.70;;;;;;;;;;5063258;28;20033;-80
2023/07/05 01:19:50;;;;;;;11.98;8.02;;;;;;;;;;5064221;28;20062;-79
2023/07/05 01:22:22;;;;;;;8.18;7.38;;;;;;;;;;5065054;28;20103;-81
2023/07/05 01:24:54;;;;;;;9.02;7.75;;;;;;;;;;5053998;28;20017;-79
2023/07/05 01:27:23;;;;;;;10.55;7.35;;;;;;;;;;5056647;28;20090;-78
2023/07/05 01:30:06;;;;;;;8.10;6.90;;;;;;;;;;5055063;28;20040;-78
2023/07/05 01:32:39;;;;;;;8.20;7.30;;;;;;;;;;5052701;28;20032;-78
2023/07/05 01:35:08;;;;;;;8.55;7.60;;;;;;;;;;5064641;28;20032;-76
2023/07/05 01:37:38;;;;;;;8.50;7.10;;;;;;;;;;5064249;28;20082;-78
2023/07/05 01:40:13;;;;;;;7.50;6.80;;;;;;;;;;5063369;28;20452;-79
2023/07/05 01:42:40;;;;;;;8.40;7.68;;;;;;;;;;5064061;28;20033;-79
2023/07/05 01:45:05;;;;;;;9.38;7.95;;;;;;;;;;5053845;28;20039;-78
2023/07/05 01:47:33;;;;;;;8.43;7.63;;;;;;;;;;5053308;28;20336;-84
2023/07/05 01:50:17;;;;;;;7.78;7.05;;;;;;;;;;5060613;28;20028;-76
2023/07/05 01:52:47;;;;;;;7.88;7.07;;;;;;;;;;5059457;28;20167;-78
2023/07/05 01:55:22;;;;;;;9.60;7.63;;;;;;;;;;5063237;28;20024;-81
2023/07/05 01:58:14;;;;;;;8.77;7.38;;;;;;;;;;5062964;28;20024;-78
2023/07/05 02:00:40;;;;;;;8.68;7.88;;;;;;;;;;5054552;28;20066;-79
2023/07/05 02:03:08;;;;;;;8.07;7.25;;;;;;;;;;5052932;28;20120;-77
2023/07/05 02:05:34;;;;;;;8.20;7.37;;;;;;;;;;5063527;28;20059;-78
2023/07/05 02:08:00;;;;;;;7.50;6.80;;;;;;;;;;5062553;28;20076;-79
2023/07/05 02:10:26;;;;;;;9.93;7.28;;;;;;;;;;5052904;28;20028;-76
2023/07/05 02:12:52;;;;;;;7.68;6.93;;;;;;;;;;5063138;28;20031;-78
2023/07/05 02:15:18;;;;;;;7.00;6.38;;;;;;;;;;5052102;28;20020;-77
2023/07/05 02:17:43;;;;;;;7.03;6.43;;;;;;;;;;5058667;28;20028;-79
2023/07/05 02:20:09;;;;;;;11.65;6.97;;;;;;;;;;5054535;28;20111;-76
2023/07/05 02:22:34;;;;;;;7.50;6.70;;;;;;;;;;5061792;28;20036;-76
2023/07/05 02:24:59;;;;;;;8.82;6.90;;;;;;;;;;5063202;28;20446;-77
2023/07/05 02:27:26;;;;;;;7.00;6.30;;;;;;;;;;5057239;28;20391;-77
2023/07/05 02:29:51;;;;;;;10.48;6.90;;;;;;;;;;5047854;28;20035;-78
2023/07/05 02:32:17;;;;;;;7.65;6.68;;;;;;;;;;5061968;28;20047;-79
2023/07/05 02:34:43;;;;;;;8.30;6.93;;;;;;;;;;5063894;28;20028;-78
2023/07/05 02:37:09;;;;;;;7.80;7.00;;;;;;;;;;5063156;28;20356;-75
2023/07/05 02:39:34;;;;;;;8.27;7.25;;;;;;;;;;5056017;28;20023;-78
2023/07/05 02:41:59;;;;;;;8.23;7.20;;;;;;;;;;5059787;28;20111;-78
2023/07/05 02:44:25;;;;;;;8.00;6.85;;;;;;;;;;5052494;28;20425;-77
2023/07/05 02:46:50;;;;;;;8.00;7.30;;;;;;;;;;5058139;28;20064;-76
2023/07/05 02:49:16;;;;;;;7.55;6.72;;;;;;;;;;5063431;28;20032;-78
2023/07/05 02:51:41;;;;;;;7.93;7.13;;;;;;;;;;5055320;28;20602;-77
2023/07/05 02:54:07;;;;;;;8.13;7.32;;;;;;;;;;5059207;28;20040;-77
2023/07/05 02:56:32;;;;;;;9.85;8.25;;;;;;;;;;5062740;28;20023;-77
2023/07/05 02:58:58;;;;;;;13.55;7.95;;;;;;;;;;5057559;28;20024;-78
2023/07/05 03:01:23;;;;;;;9.70;7.90;;;;;;;;;;5053729;28;20028;-79
2023/07/05 03:03:49;;;;;;;8.57;7.75;;;;;;;;;;5055448;28;20139;-80
2023/07/05 03:06:14;;;;;;;10.55;7.88;;;;;;;;;;5056663;28;20448;-78
2023/07/05 03:08:39;;;;;;;11.30;7.60;;;;;;;;;;5061670;28;20075;-78
2023/07/05 03:11:05;;;;;;;8.63;7.72;;;;;;;;;;5061505;28;20025;-85
2023/07/05 03:13:31;;;;;;;11.63;7.57;;;;;;;;;;5057078;28;20032;-78
2023/07/05 03:15:58;;;;;;;8.40;7.70;;;;;;;;;;5049605;28;20433;-77
2023/07/05 03:18:25;;;;;;;9.20;7.80;;;;;;;;;;5054362;28;20024;-81
2023/07/05 03:20:50;;;;;;;8.52;7.60;;;;;;;;;;5061599;28;20447;-76
2023/07/05 03:23:16;;;;;;;9.88;8.88;;;;;;;;;;5062432;28;20048;-76
2023/07/05 03:25:52;;;;;;;10.15;8.32;;;;;;;;;;5050572;28;20039;-78
2023/07/05 03:28:17;;;;;;;10.32;8.93;;;;;;;;;;5051965;28;20054;-79
2023/07/05 03:30:42;;;;;;;11.70;7.63;;;;;;;;;;5050799;28;20363;-78
2023/07/05 03:33:08;;;;;;;14.05;8.48;;;;;;;;;;5056718;28;20357;-77
2023/07/05 03:35:33;;;;;;;14.52;8.63;;;;;;;;;;5056449;28;20059;-78
2023/07/05 03:37:58;;;;;;;10.55;8.70;;;;;;;;;;5059779;28;20074;-76
2023/07/05 03:40:24;;;;;;;10.43;8.70;;;;;;;;;;5047742;28;20029;-77
2023/07/05 03:42:49;;;;;;;9.63;8.27;;;;;;;;;;5043590;28;20020;-75
2023/07/05 03:45:14;;;;;;;11.90;8.40;;;;;;;;;;5045581;28;20446;-75
2023/07/05 03:47:40;;;;;;;10.30;8.38;;;;;;;;;;5044641;28;20054;-79
2023/07/05 03:50:05;;;;;;;12.77;8.38;;;;;;;;;;5045433;28;20039;-78
2023/07/05 03:52:31;;;;;;;9.80;8.65;;;;;;;;;;5043440;28;20345;-79
2023/07/05 03:54:57;;;;;;;10.60;9.00;;;;;;;;;;5045285;28;20021;-79
2023/07/05 03:57:22;;;;;;;12.23;8.00;;;;;;;;;;5061589;28;20460;-78
2023/07/05 03:59:48;;;;;;;9.90;8.90;;;;;;;;;;5054504;28;20028;-77
2023/07/05 04:02:13;;;;;;;11.20;8.77;;;;;;;;;;5045196;28;20120;-77
2023/07/05 04:04:39;;;;;;;12.18;8.77;;;;;;;;;;5048955;28;20394;-80
2023/07/05 04:07:06;;;;;;;12.02;9.45;;;;;;;;;;5053565;28;20068;-77
2023/07/05 04:09:32;;;;;;;14.35;8.93;;;;;;;;;;5044251;28;20041;-78
2023/07/05 04:11:57;;;;;;;12.50;9.55;;;;;;;;;;5046460;28;20375;-77
2023/07/05 04:14:22;;;;;;;11.80;9.98;;;;;;;;;;5048743;28;20040;-78
2023/07/05 04:16:48;;;;;;;17.10;8.82;;;;;;;;;;5050003;28;20127;-79
2023/07/05 04:19:15;;;;;;;12.95;10.00;;;;;;;;;;5060180;28;20120;-79
2023/07/05 04:21:40;;;;;;;13.07;11.88;;;;;;;;;;5065174;28;21286;-79
2023/07/05 04:24:06;;;;;;;13.75;12.48;;;;;;;;;;5065902;28;20127;-80
2023/07/05 04:26:31;;;;;;;15.63;14.15;;;;;;;;;;5065719;28;20469;-80
2023/07/05 04:28:56;;;;;;;14.73;13.35;;;;;;;;;;5060485;28;20068;-80
2023/07/05 04:31:27;;;;;;;14.73;13.13;;;;;;;;;;5058175;28;20673;-78
2023/07/05 04:33:53;;;;;;;16.88;13.95;;;;;;;;;;5051506;28;20039;-81
2023/07/05 04:36:19;;;;;;;16.25;14.75;;;;;;;;;;5062186;28;20028;-79
2023/07/05 04:38:44;;;;;;;14.75;13.35;;;;;;;;;;5050734;28;20471;-79
2023/07/05 04:41:09;;;;;;;16.40;14.95;;;;;;;;;;5052015;28;20036;-80
2023/07/05 04:43:35;;;;;;;15.48;13.98;;;;;;;;;;5048488;28;20033;-79
2023/07/05 04:46:01;;;;;;;18.67;14.63;;;;;;;;;;5063267;28;20043;-78
2023/07/05 04:48:27;;;;;;;18.08;16.38;;;;;;;;;;5065079;28;20024;-78
2023/07/05 04:50:54;;;;;;;17.15;15.52;;;;;;;;;;5056398;28;20121;-78
2023/07/05 04:53:20;;;;;;;16.40;14.88;;;;;;;;;;5050252;28;20402;-78
2023/07/05 04:55:50;;;;;;;17.73;15.82;;;;;;;;;;5050181;28;20493;-78
2023/07/05 04:58:16;;;;;;;16.08;14.57;;;;;;;;;;5054365;28;20013;-81
2023/07/05 05:00:46;;;;;;;15.90;14.30;;;;;;;;;;5064074;28;20329;-80
2023/07/05 05:03:12;;;;;;;15.15;13.70;;;;;;;;;;5064093;28;20663;-82
2023/07/05 05:05:37;;;;;;;15.18;13.65;;;;;;;;;;5064468;28;20170;-82
2023/07/05 05:08:03;;;;;;;15.45;13.90;;;;;;;;;;5065333;28;21072;-79
2023/07/05 05:10:28;;;;;;;16.42;14.70;;;;;;;;;;5065168;28;20032;-82
2023/07/05 05:12:53;;;;;;;17.73;15.93;;;;;;;;;;5065099;28;20060;-82
2023/07/05 05:15:19;;;;;;;15.65;13.98;;;;;;;;;;5063268;28;20024;-79
2023/07/05 05:17:44;;;;;;;16.77;15.02;;;;;;;;;;5064900;28;20024;-78
2023/07/05 05:20:10;;;;;;;16.05;14.55;;;;;;;;;;5064599;28;20028;-77
2023/07/05 05:22:35;;;;;;;15.32;13.93;;;;;;;;;;5063881;28;20025;-78
2023/07/05 05:25:00;;;;;;;15.63;14.02;;;;;;;;;;5064684;28;20044;-79
2023/07/05 05:27:26;;;;;;;16.88;15.13;;;;;;;;;;5064390;28;20025;-78
2023/07/05 05:29:51;;;;;;;17.98;16.27;;;;;;;;;;5062559;28;20036;-77
2023/07/05 05:32:16;;;;;;;16.63;14.98;;;;;;;;;;5051405;28;20475;-75
2023/07/05 05:34:42;;;;;;;14.60;13.30;;;;;;;;;;5050323;28;20020;-77
2023/07/05 05:37:07;;;;;;;16.85;15.25;;;;;;;;;;5049260;28;20032;-76
2023/07/05 05:39:33;;;;;;;15.30;13.70;;;;;;;;;;5059282;28;20039;-77
2023/07/05 05:41:58;;;;;;;16.17;14.55;;;;;;;;;;5063331;28;20020;-77
2023/07/05 05:44:23;;;;;;;17.17;15.43;;;;;;;;;;5064182;28;20474;-77
2023/07/05 05:46:49;;;;;;;14.65;13.15;;;;;;;;;;5063319;28;20324;-77
2023/07/05 05:49:14;;;;;;;15.18;13.65;;;;;;;;;;5064388;28;20025;-78
2023/07/05 05:51:39;;;;;;;15.38;13.55;;;;;;;;;;5062873;28;20044;-77
2023/07/05 05:54:05;;;;;;;13.98;12.70;;;;;;;;;;5063191;28;20328;-77
2023/07/05 05:56:30;;;;;;;14.40;13.05;;;;;;;;;;5063355;28;20349;-77
2023/07/05 05:58:55;;;;;;;15.75;14.10;;;;;;;;;;5062381;28;20075;-78
2023/07/05 06:01:21;;;;;;;14.25;12.90;;;;;;;;;;5050727;28;20085;-77
2023/07/05 06:03:46;;;;;;;13.38;12.07;;;;;;;;;;5062118;28;20033;-77
2023/07/05 06:06:12;;;;;;;13.70;12.40;;;;;;;;;;5061957;28;20095;-77
2023/07/05 06:08:37;;;;;;;12.73;11.43;;;;;;;;;;5063634;28;20029;-78
2023/07/05 06:11:03;;;;;;;12.48;11.38;;;;;;;;;;5062999;28;20120;-79
2023/07/05 06:13:29;;;;;;;12.60;11.40;;;;;;;;;;5062264;28;20028;-76
2023/07/05 06:15:58;;;;;;;13.73;12.35;;;;;;;;;;5062714;28;20348;-78
2023/07/05 06:18:25;;;;;;;13.48;12.15;;;;;;;;;;5062730;28;20028;-76
2023/07/05 06:20:50;;;;;;;13.32;12.07;;;;;;;;;;5063633;28;20029;-76
2023/07/05 06:23:16;;;;;;;14.23;11.73;;;;;;;;;;5063589;28;20036;-78
2023/07/05 06:25:44;;;;;;;12.43;11.32;;;;;;;;;;5061940;28;20032;-79
2023/07/05 06:28:09;;;;;;;12.00;10.85;;;;;;;;;;5063879;28;20462;-77
2023/07/05 06:30:35;;;;;;;12.93;11.02;;;;;;;;;;5063934;28;20009;-78
2023/07/05 06:33:00;;;;;;;12.48;11.27;;;;;;;;;;5063170;28;20352;-79
2023/07/05 06:35:25;;;;;;;13.38;11.45;;;;;;;;;;5061683;28;20330;-80
2023/07/05 06:37:50;;;;;;;12.50;11.43;;;;;;;;;;5062364;28;20464;-77
2023/07/05 06:40:16;;;;;;;12.45;11.32;;;;;;;;;;5061306;28;20074;-79
2023/07/05 06:42:41;;;;;;;12.25;11.15;;;;;;;;;;5062383;28;20040;-79
2023/07/05 06:45:07;;;;;;;15.75;12.30;;;;;;;;;;5062164;28;20043;-77
2023/07/05 06:47:33;;;;;;;15.20;13.80;;;;;;;;;;5063045;28;20031;-77
2023/07/05 06:49:59;;;;;;;15.15;12.88;;;;;;;;;;5063236;28;20439;-78
2023/07/05 06:52:24;;;;;;;13.40;11.52;;;;;;;;;;5062646;28;20039;-79
2023/07/05 06:54:49;;;;;;;12.68;11.48;;;;;;;;;;5060180;28;20116;-75
2023/07/05 06:57:15;;;;;;;14.35;12.70;;;;;;;;;;5062034;28;20348;-76
2023/07/05 06:59:43;;;;;;;16.00;10.90;;;;;;;;;;5063052;28;20028;-77
2023/07/05 07:02:09;;;;;;;15.57;11.30;;;;;;;;;;5062694;28;20040;-77
2023/07/05 07:04:34;;;;;;;12.32;10.95;;;;;;;;;;5062179;28;20055;-78
2023/07/05 07:07:00;;;;;;;11.70;10.65;;;;;;;;;;5062486;28;20453;-79
2023/07/05 07:09:25;;;;;;;12.43;11.02;;;;;;;;;;5062693;28;20182;-78
2023/07/05 07:11:50;;;;;;;12.65;11.35;;;;;;;;;;5061214;28;20016;-78
2023/07/05 07:14:16;;;;;;;13.68;11.18;;;;;;;;;;5062678;28;20458;-77
2023/07/05 07:16:41;;;;;;;13.48;11.90;;;;;;;;;;5062494;28;20025;-75
2023/07/05 07:19:06;;;;;;;13.13;11.20;;;;;;;;;;5062510;28;20343;-78
2023/07/05 07:21:32;;;;;;;14.48;10.93;;;;;;;;;;5062845;28;20024;-78
2023/07/05 07:23:57;;;;;;;13.07;11.65;;;;;;;;;;5062869;28;20028;-77
2023/07/05 07:26:24;;;;;;;14.50;11.85;;;;;;;;;;5062262;28;20025;-76
2023/07/05 07:28:53;;;;;;;14.77;10.98;;;;;;;;;;5061915;28;20036;-79
2023/07/05 07:31:25;;;;;;;15.05;12.98;;;;;;;;;;5061964;28;20108;-76
2023/07/05 07:33:51;;;;;;;12.82;11.32;;;;;;;;;;5062545;28;20428;-78
2023/07/05 07:36:21;;;;;;;12.07;10.93;;;;;;;;;;5062079;28;20101;-77
2023/07/05 07:38:47;;;;;;;12.18;11.05;;;;;;;;;;5062189;28;20052;-76
2023/07/05 07:41:17;;;;;;;12.45;11.25;;;;;;;;;;5061063;28;20136;-76
2023/07/05 07:43:42;;;;;;;12.63;10.18;;;;;;;;;;5060049;28;20078;-78
2023/07/05 07:46:09;;;;;;;12.43;11.23;;;;;;;;;;5061756;28;20028;-77
2023/07/05 07:48:34;;;;;;;11.98;10.45;;;;;;;;;;5061952;28;20044;-77
2023/07/05 07:50:59;;;;;;;11.50;10.32;;;;;;;;;;5062011;28;20136;-77
2023/07/05 07:53:25;;;;;;;18.38;11.07;;;;;;;;;;5060953;28;20036;-76
2023/07/05 07:55:50;;;;;;;11.70;10.50;;;;;;;;;;5060271;28;20031;-77
2023/07/05 07:58:15;;;;;;;11.35;10.15;;;;;;;;;;5061588;28;20435;-79
2023/07/05 08:00:41;;;;;;;11.15;10.15;;;;;;;;;;5062308;28;20016;-77
2023/07/05 08:03:06;;;;;;;12.20;9.98;;;;;;;;;;5061308;28;20036;-75
2023/07/05 08:05:32;;;;;;;12.25;11.00;;;;;;;;;;5061485;28;20143;-77
2023/07/05 08:07:57;;;;;;;13.73;12.32;;;;;;;;;;5062282;28;20409;-78
2023/07/05 08:10:22;;;;;;;10.70;9.60;;;;;;;;;;5061513;28;20360;-76
2023/07/05 08:12:47;;;;;;;9.45;8.50;;;;;;;;;;5061750;28;20063;-76
2023/07/05 08:15:13;;;;;;;10.75;8.75;;;;;;;;;;5061593;28;20032;-77
2023/07/05 08:17:39;;;;;;;9.40;8.50;;;;;;;;;;5061803;28;20025;-76
2023/07/05 08:20:05;;;;;;;9.90;8.90;;;;;;;;;;5062184;28;20025;-74
2023/07/05 08:22:30;;;;;;;9.15;7.75;;;;;;;;;;5062157;28;20364;-77
2023/07/05 08:24:56;;;;;;;9.10;8.23;;;;;;;;;;5061835;28;20620;-77
2023/07/05 08:27:21;;;;;;;9.18;8.30;;;;;;;;;;5060793;28;20109;-77
2023/07/05 08:29:47;;;;;;;8.45;7.65;;;;;;;;;;5061349;28;20442;-76
2023/07/05 08:32:12;;;;;;;8.70;7.10;;;;;;;;;;5060626;28;20359;-78
2023/07/05 08:34:37;;;;;;;8.45;7.55;;;;;;;;;;5061777;28;20103;-78
2023/07/05 08:37:03;;;;;;;7.55;6.85;;;;;;;;;;5061614;28;20101;-77
2023/07/05 08:39:29;;;;;;;8.15;7.40;;;;;;;;;;5059923;28;20021;-77
2023/07/05 08:42:01;;;;;;;7.90;7.20;;;;;;;;;;5061803;28;20039;-78
2023/07/05 08:44:29;;;;;;;7.00;6.03;;;;;;;;;;5061324;28;20471;-77
2023/07/05 08:47:00;;;;;;;8.35;6.93;;;;;;;;;;5061561;28;20083;-76
2023/07/05 08:49:33;;;;;;;7.07;6.38;;;;;;;;;;5061316;28;20316;-79
2023/07/05 08:51:59;;;;;;;8.40;6.45;;;;;;;;;;5076351;28;20376;-77
2023/07/05 08:54:31;;;;;;;7.45;6.32;;;;;;;;;;5061665;28;20039;-77
2023/07/05 08:57:00;;;;;;;9.10;6.20;;;;;;;;;;5061759;28;20024;-77
2023/07/05 08:59:26;;;;;;;6.90;5.35;;;;;;;;;;5061739;28;20051;-77
2023/07/05 09:01:53;;;;;;;6.30;5.70;;;;;;;;;;5061409;28;20444;-77
2023/07/05 09:04:23;;;;;;;6.75;5.72;;;;;;;;;;5061771;28;20028;-77
2023/07/05 09:07:07;;;;;;;5.50;5.03;;;;;;;;;;5051954;28;20060;-79
2023/07/05 09:09:45;;;;;;;5.55;5.00;;;;;;;;;;5048739;28;20067;-80
2023/07/05 09:12:17;;;;;;;5.47;4.97;;;;;;;;;;5050284;28;20030;-79
2023/07/05 09:15:01;;;;;;;5.75;5.25;;;;;;;;;;5052918;28;20060;-79
2023/07/05 09:17:27;;;;;;;5.38;4.45;;;;;;;;;;5049930;28;20452;-79
2023/07/05 09:20:01;;;;;;;5.40;4.93;;;;;;;;;;5048798;28;20024;-77
2023/07/05 09:22:29;;;;;;;7.70;5.50;;;;;;;;;;5050957;28;20036;-76
2023/07/05 09:24:56;;;;;;;5.40;4.97;;;;;;;;;;5051130;28;20112;-78
2023/07/05 09:27:27;;;;;;;6.30;5.70;;;;;;;;;;5050890;28;20025;-76
2023/07/05 09:30:01;;;;;;;7.82;5.75;;;;;;;;;;5051499;28;20111;-78
2023/07/05 09:32:30;;;;;;;6.35;5.68;;;;;;;;;;5049232;28;20044;-78
2023/07/05 09:34:58;;;;;;;7.03;5.68;;;;;;;;;;5049561;28;20040;-77
2023/07/05 09:37:26;;;;;;;6.55;5.90;;;;;;;;;;5048993;28;20450;-76
2023/07/05 09:39:51;;;;;;;7.43;6.72;;;;;;;;;;5050266;28;20616;-75
2023/07/05 09:42:24;;;;;;;7.20;6.00;;;;;;;;;;5048617;28;20493;-77
2023/07/05 09:44:49;;;;;;;7.63;6.63;;;;;;;;;;5050569;28;20765;-76
2023/07/05 09:47:15;;;;;;;9.05;7.10;;;;;;;;;;5047589;28;20024;-77
2023/07/05 09:49:40;;;;;;;8.05;7.15;;;;;;;;;;5049214;28;20017;-77
2023/07/05 09:52:11;;;;;;;6.72;6.22;;;;;;;;;;5050856;28;20031;-77
2023/07/05 09:54:37;;;;;;;7.72;7.05;;;;;;;;;;5048706;28;20082;-76
2023/07/05 09:57:06;;;;;;;7.28;6.55;;;;;;;;;;5050552;28;20491;-77
2023/07/05 09:59:32;;;;;;;8.13;7.32;;;;;;;;;;5048967;28;20024;-75
2023/07/05 10:02:10;;;;;;;7.88;7.18;;;;;;;;;;5050122;28;20036;-76
2023/07/05 10:04:42;;;;;;;7.97;6.30;;;;;;;;;;5050486;28;20062;-75
2023/07/05 10:07:13;;;;;;;7.05;6.43;;;;;;;;;;5049117;28;20062;-77
2023/07/05 10:09:52;;;;;;;8.68;7.03;;;;;;;;;;5049982;28;20027;-78
2023/07/05 10:12:23;;;;;;;6.63;5.93;;;;;;;;;;5050446;28;20040;-75
2023/07/05 10:14:55;;;;;;;7.25;6.65;;;;;;;;;;5049142;28;20021;-77
2023/07/05 10:17:20;;;;;;;7.00;6.40;;;;;;;;;;5049506;28;20024;-75
2023/07/05 10:19:50;;;;;;;7.13;6.43;;;;;;;;;;5048484;28;20074;-78
2023/07/05 10:22:15;;;;;;;8.15;7.05;;;;;;;;;;5048597;28;20082;-74
2023/07/05 10:24:45;;;;;;;7.53;6.40;;;;;;;;;;5053056;28;20370;-77
2023/07/05 10:27:19;;;;;;;7.32;6.63;;;;;;;;;;5049027;28;20032;-78
2023/07/05 10:29:47;;;;;;;7.28;6.55;;;;;;;;;;5048152;28;20020;-78
2023/07/05 10:32:18;;;;;;;7.50;6.90;;;;;;;;;;5049238;28;20117;-75
2023/07/05 10:34:49;;;;;;;7.80;6.57;;;;;;;;;;5049412;28;20032;-76
2023/07/05 10:37:24;;;;;;;7.75;7.15;;;;;;;;;;5047593;28;20016;-77
2023/07/05 10:39:49;;;;;;;8.05;7.00;;;;;;;;;;5048731;28;20059;-77
2023/07/05 10:42:15;;;;;;;8.93;6.82;;;;;;;;;;5047581;28;20453;-78
2023/07/05 10:44:41;;;;;;;10.57;7.28;;;;;;;;;;5049854;28;20017;-76
2023/07/05 10:47:09;;;;;;;9.18;7.75;;;;;;;;;;5048649;28;20082;-77
2023/07/05 10:49:36;;;;;;;8.20;7.50;;;;;;;;;;5048530;28;20024;-76
2023/07/05 10:52:06;;;;;;;7.88;7.18;;;;;;;;;;5063800;28;20329;-77
2023/07/05 10:54:40;;;;;;;7.93;7.22;;;;;;;;;;5049468;28;20119;-75
2023/07/05 10:57:28;;;;;;;7.03;6.43;;;;;;;;;;5051250;28;20031;-77
2023/07/05 11:00:09;;;;;;;7.85;7.15;;;;;;;;;;5047902;28;20099;-78
2023/07/05 11:02:34;;;;;;;7.90;7.07;;;;;;;;;;5048963;28;20115;-77
2023/07/05 11:05:00;;;;;;;7.70;7.00;;;;;;;;;;5046278;28;20135;-78
2023/07/05 11:07:27;;;;;;;7.47;6.78;;;;;;;;;;5046154;28;20056;-75
2023/07/05 11:09:53;;;;;;;7.78;7.07;;;;;;;;;;5048015;28;20066;-76
2023/07/05 11:12:20;;;;;;;7.20;6.50;;;;;;;;;;5049405;28;20024;-75
2023/07/05 11:14:46;;;;;;;9.37;7.47;;;;;;;;;;5048718;28;20056;-74
2023/07/05 11:17:21;;;;;;;8.18;6.53;;;;;;;;;;5048510;28;20055;-75
2023/07/05 11:19:47;;;;;;;7.80;7.05;;;;;;;;;;5048808;28;20457;-76
2023/07/05 11:22:31;;;;;;;7.55;6.88;;;;;;;;;;5046361;28;20111;-76
2023/07/05 11:24:56;;;;;;;7.80;7.10;;;;;;;;;;5047414;28;20059;-77
2023/07/05 11:27:21;;;;;;;8.32;6.97;;;;;;;;;;5047434;28;20052;-76
2023/07/05 11:29:47;;;;;;;7.95;7.00;;;;;;;;;;5054057;28;20025;-76
2023/07/05 11:32:12;;;;;;;7.97;7.18;;;;;;;;;;5062445;28;20028;-77
2023/07/05 11:34:43;;;;;;;7.38;6.75;;;;;;;;;;5062094;28;20020;-76
2023/07/05 11:37:08;;;;;;;9.02;7.63;;;;;;;;;;5061451;28;20016;-76
2023/07/05 11:39:37;;;;;;;9.55;8.27;;;;;;;;;;5061137;28;20029;-77
2023/07/05 11:42:12;;;;;;;8.32;7.22;;;;;;;;;;5061570;28;20039;-77
2023/07/05 11:44:48;;;;;;;9.55;7.68;;;;;;;;;;5061984;28;20025;-76
2023/07/05 11:47:22;;;;;;;8.65;7.75;;;;;;;;;;5053479;28;20028;-74
2023/07/05 11:49:52;;;;;;;9.95;7.30;;;;;;;;;;5059647;28;20098;-76
2023/07/05 11:52:29;;;;;;;8.73;7.88;;;;;;;;;;5047301;28;20862;-76
2023/07/05 11:55:15;;;;;;;9.07;7.95;;;;;;;;;;5046490;28;20405;-77
2023/07/05 11:57:46;;;;;;;8.82;8.02;;;;;;;;;;5046222;28;20043;-75
2023/07/05 12:00:20;;;;;;;8.30;7.70;;;;;;;;;;5046491;28;20036;-75
2023/07/05 12:03:01;;;;;;;9.15;7.75;;;;;;;;;;5046298;28;20040;-75
2023/07/05 12:05:28;;;;;;;8.95;7.53;;;;;;;;;;5047088;28;20020;-79
2023/07/05 12:08:00;;;;;;;9.18;7.95;;;;;;;;;;5046919;28;20123;-77
2023/07/05 12:10:27;;;;;;;8.68;7.78;;;;;;;;;;5047453;28;20454;-75
2023/07/05 12:12:52;;;;;;;9.18;7.50;;;;;;;;;;5045711;28;20172;-75
2023/07/05 12:15:18;;;;;;;8.43;7.63;;;;;;;;;;5043936;28;20446;-75
2023/07/05 12:17:44;;;;;;;7.97;7.28;;;;;;;;;;5047077;28;20032;-76
2023/07/05 12:20:33;;;;;;;8.60;7.80;;;;;;;;;;5047518;28;20026;-78
2023/07/05 12:22:58;;;;;;;;;;;;;;;;;;5042996;28;20106;-77
2023/07/05 12:25:24;;;;;;;8.50;7.70;;;;;;;;;;5047191;28;19912;-77
2023/07/05 12:27:51;;;;;;;8.65;7.53;;;;;;;;;;5047264;28;20040;-76
2023/07/05 12:30:18;;;;;;;8.48;7.65;;;;;;;;;;5046220;28;20112;-77
2023/07/05 12:32:48;;;;;;;8.38;7.68;;;;;;;;;;5046948;28;20033;-77
2023/07/05 12:35:15;;;;;;;9.80;6.93;;;;;;;;;;5046110;28;21144;-78
2023/07/05 12:37:41;;;;;;;12.38;7.53;;;;;;;;;;5043383;28;20566;-77
2023/07/05 12:40:13;;;;;;;8.65;7.93;;;;;;;;;;5046842;28;20116;-77
2023/07/05 12:42:51;;;;;;;8.15;7.35;;;;;;;;;;5050609;28;20040;-77
2023/07/05 12:45:24;;;;;;;8.68;7.78;;;;;;;;;;5050095;28;20074;-76
2023/07/05 12:47:50;;;;;;;8.20;7.50;;;;;;;;;;5049032;28;20016;-76
2023/07/05 12:50:23;;;;;;;10.45;7.80;;;;;;;;;;5050717;28;20454;-78
2023/07/05 12:52:59;;;;;;;8.77;7.88;;;;;;;;;;5049895;28;20344;-76
2023/07/05 12:55:28;;;;;;;8.52;7.82;;;;;;;;;;5050688;28;20020;-76
2023/07/05 12:57:55;;;;;;;9.02;7.75;;;;;;;;;;5049398;28;20028;-77
2023/07/05 13:00:20;;;;;;;9.38;8.23;;;;;;;;;;5050835;28;20297;-77
2023/07/05 13:02:45;;;;;;;9.82;8.07;;;;;;;;;;5048219;28;21216;-77
2023/07/05 13:05:11;;;;;;;8.35;7.57;;;;;;;;;;5050149;28;20169;-77
2023/07/05 13:07:39;;;;;;;8.50;7.60;;;;;;;;;;5050873;28;20040;-77
2023/07/05 13:10:08;;;;;;;9.10;8.30;;;;;;;;;;5051035;28;20077;-77
2023/07/05 13:13:04;;;;;;;9.05;8.30;;;;;;;;;;5049224;28;20059;-77
2023/07/05 13:15:34;;;;;;;8.93;8.13;;;;;;;;;;5043440;28;20048;-76
2023/07/05 13:18:18;;;;;;;8.35;7.63;;;;;;;;;;5054687;28;20036;-76
2023/07/05 13:20:45;;;;;;;8.77;7.88;;;;;;;;;;5059584;28;20024;-76
2023/07/05 13:23:11;;;;;;;8.15;7.32;;;;;;;;;;5049930;28;20145;-77
2023/07/05 13:25:42;;;;;;;8.48;7.68;;;;;;;;;;5049947;28;20468;-77
2023/07/05 13:28:17;;;;;;;8.48;7.72;;;;;;;;;;5049301;28;20715;-75
2023/07/05 13:30:43;;;;;;;9.18;7.75;;;;;;;;;;5045500;28;20082;-77
2023/07/05 13:33:11;;;;;;;8.70;7.80;;;;;;;;;;5049186;28;20036;-76
2023/07/05 13:35:37;;;;;;;8.57;7.72;;;;;;;;;;5049740;28;20447;-76
2023/07/05 13:38:02;;;;;;;7.93;7.18;;;;;;;;;;5049227;28;20036;-77
2023/07/05 13:40:29;;;;;;;9.13;7.32;;;;;;;;;;5048139;28;20959;-77
2023/07/05 13:42:54;;;;;;;8.73;7.93;;;;;;;;;;5049607;28;20040;-76
2023/07/05 13:45:22;;;;;;;8.70;7.82;;;;;;;;;;5050318;28;20029;-75
2023/07/05 13:47:48;;;;;;;9.40;8.43;;;;;;;;;;5051028;28;20115;-78
2023/07/05 13:50:14;;;;;;;10.40;7.90;;;;;;;;;;5047173;28;20166;-78
2023/07/05 13:52:40;;;;;;;9.77;7.65;;;;;;;;;;5048271;28;20416;-77
2023/07/05 13:55:06;;;;;;;10.23;8.00;;;;;;;;;;5055219;28;20506;-77
2023/07/05 13:57:33;;;;;;;7.85;7.18;;;;;;;;;;5059861;28;20111;-77
2023/07/05 13:59:58;;;;;;;8.60;7.90;;;;;;;;;;5056188;28;20063;-76
2023/07/05 14:02:31;;;;;;;7.90;7.30;;;;;;;;;;5054663;28;20068;-76
2023/07/05 14:04:57;;;;;;;8.60;7.78;;;;;;;;;;5060383;28;20098;-74
2023/07/05 14:07:23;;;;;;;10.93;7.88;;;;;;;;;;5058819;28;20086;-78
2023/07/05 14:09:48;;;;;;;9.55;7.65;;;;;;;;;;5063596;28;20017;-78
2023/07/05 14:12:17;;;;;;;8.57;7.63;;;;;;;;;;5059778;28;20036;-77
2023/07/05 14:14:43;;;;;;;9.23;8.32;;;;;;;;;;5048403;28;20024;-77
2023/07/05 14:17:16;;;;;;;8.13;7.53;;;;;;;;;;5052531;28;20078;-78
2023/07/05 14:19:41;;;;;;;8.68;7.95;;;;;;;;;;5063509;28;20127;-76
2023/07/05 14:22:11;;;;;;;8.80;7.88;;;;;;;;;;5062301;28;20175;-77
2023/07/05 14:24:36;;;;;;;9.05;8.25;;;;;;;;;;5062403;28;20044;-76
2023/07/05 14:27:02;;;;;;;8.40;7.70;;;;;;;;;;5062621;28;20032;-78
2023/07/05 14:29:28;;;;;;;9.20;7.95;;;;;;;;;;5047016;28;20020;-76
2023/07/05 14:31:53;;;;;;;9.18;8.45;;;;;;;;;;5048607;28;20095;-78
2023/07/05 14:34:18;;;;;;;11.57;8.02;;;;;;;;;;5045887;28;20028;-76
2023/07/05 14:36:44;;;;;;;8.65;7.85;;;;;;;;;;5047805;28;20039;-78